createdAt,value
2023-03-21T00:02:00.182Z,45.03
2023-03-21T00:04:33.193Z,45.33
2023-03-21T00:07:05.038Z,44.67
2023-03-21T00:09:31.910Z,40.90
2023-03-21T00:12:01.710Z,51.60
2023-03-21T00:14:30.722Z,47.20
2023-03-21T00:16:58.045Z,50.80
2023-03-21T00:19:26.510Z,47.93
2023-03-21T00:22:06.966Z,51.20
2023-03-21T00:24:36.586Z,47.70
2023-03-21T00:29:51.618Z,50.93
2023-03-21T00:32:22.135Z,67.63
2023-03-21T00:35:09.697Z,41.90
2023-03-21T00:37:39.304Z,42.67
2023-03-21T00:40:29.183Z,44.57
2023-03-21T00:42:59.751Z,49.67
2023-03-21T00:45:26.678Z,43.90
2023-03-21T00:47:58.689Z,41.50
2023-03-21T00:50:28.229Z,44.50
2023-03-21T00:52:55.155Z,40.00
2023-03-21T00:55:22.036Z,43.47
2023-03-21T00:58:01.150Z,42.00
2023-03-21T01:00:33.078Z,46.17
2023-03-21T01:03:17.709Z,47.13
2023-03-21T01:06:04.317Z,49.47
2023-03-21T01:08:52.369Z,43.43
2023-03-21T01:11:29.000Z,47.77
2023-03-21T01:14:10.983Z,42.10
2023-03-21T01:16:42.194Z,44.60
2023-03-21T01:19:23.956Z,43.27
2023-03-21T01:21:51.715Z,44.03
2023-03-21T01:24:25.735Z,41.70
2023-03-21T01:26:52.634Z,44.37
2023-03-21T01:29:21.895Z,42.83
2023-03-21T01:31:50.906Z,45.50
2023-03-21T01:34:17.858Z,40.77
2023-03-21T01:36:46.981Z,44.00
2023-03-21T01:39:13.889Z,44.97
2023-03-21T01:41:45.027Z,43.87
2023-03-21T01:44:17.617Z,46.47
2023-03-21T01:47:12.174Z,37.10
2023-03-21T01:49:46.158Z,35.50
2023-03-21T01:52:35.254Z,43.20
2023-03-21T01:55:12.389Z,38.13
2023-03-21T01:58:04.412Z,44.03
2023-03-21T02:00:33.808Z,42.83
2023-03-21T02:03:15.304Z,46.47
2023-03-21T02:06:03.239Z,36.60
2023-03-21T02:08:39.459Z,35.90
2023-03-21T02:11:10.725Z,39.53
2023-03-21T02:13:40.724Z,36.27
2023-03-21T02:16:12.940Z,37.17
2023-03-21T02:18:49.707Z,43.23
2023-03-21T02:21:53.473Z,40.10
2023-03-21T02:24:54.538Z,37.90
2023-03-21T02:27:30.795Z,37.73
2023-03-21T02:30:29.358Z,39.73
2023-03-21T02:33:28.397Z,39.90
2023-03-21T02:36:15.974Z,40.07
2023-03-21T02:39:11.633Z,42.73
2023-03-21T02:42:08.491Z,36.93
2023-03-21T02:45:01.661Z,38.10
2023-03-21T02:48:04.533Z,43.20
2023-03-21T02:50:39.876Z,39.30
2023-03-21T02:53:10.620Z,42.43
2023-03-21T02:55:40.560Z,38.50
2023-03-21T02:58:14.116Z,35.43
2023-03-21T03:00:43.413Z,45.17
2023-03-21T03:03:18.209Z,39.03
2023-03-21T03:06:03.316Z,38.63
2023-03-21T03:08:53.042Z,40.20
2023-03-21T03:11:42.661Z,39.80
2023-03-21T03:14:56.494Z,38.60
2023-03-21T03:17:55.418Z,47.80
2023-03-21T03:21:08.360Z,40.00
2023-03-21T03:23:54.126Z,38.50
2023-03-21T03:26:28.189Z,39.27
2023-03-21T03:29:03.296Z,38.13
2023-03-21T03:31:43.412Z,42.40
2023-03-21T03:34:15.293Z,37.57
2023-03-21T03:36:51.568Z,36.73
2023-03-21T03:39:18.952Z,38.53
2023-03-21T03:42:27.206Z,46.40
2023-03-21T03:44:56.127Z,40.13
2023-03-21T03:47:50.711Z,40.33
2023-03-21T03:50:31.178Z,39.27
2023-03-21T03:53:32.490Z,44.73
2023-03-21T03:56:01.571Z,44.23
2023-03-21T03:58:42.924Z,41.60
2023-03-21T04:01:14.853Z,46.97
2023-03-21T04:03:51.722Z,46.80
2023-03-21T04:06:29.985Z,45.77
2023-03-21T04:09:01.674Z,44.17
2023-03-21T04:11:32.747Z,45.77
2023-03-21T04:13:59.734Z,47.07
2023-03-21T04:16:26.620Z,41.97
2023-03-21T04:18:53.756Z,44.10
2023-03-21T04:21:23.733Z,51.63
2023-03-21T04:23:50.901Z,45.00
2023-03-21T04:26:22.861Z,54.07
2023-03-21T04:28:51.477Z,44.37
2023-03-21T04:31:25.445Z,47.70
2023-03-21T04:33:53.013Z,51.53
2023-03-21T04:36:28.772Z,50.60
2023-03-21T04:39:01.655Z,49.37
2023-03-21T04:41:29.837Z,51.50
2023-03-21T04:43:59.053Z,53.73
2023-03-21T04:46:26.215Z,55.00
2023-03-21T04:48:53.139Z,55.10
2023-03-21T04:51:20.276Z,50.77
2023-03-21T04:53:49.321Z,50.17
2023-03-21T04:56:16.810Z,48.80
2023-03-21T04:58:43.732Z,58.37
2023-03-21T05:01:14.616Z,58.57
2023-03-21T05:03:43.853Z,57.97
2023-03-21T05:06:15.899Z,59.67
2023-03-21T05:08:45.198Z,56.07
2023-03-21T05:11:12.462Z,60.03
2023-03-21T05:13:39.405Z,57.40
2023-03-21T05:16:09.994Z,54.80
2023-03-21T05:18:39.082Z,62.50
2023-03-21T05:21:11.917Z,59.70
2023-03-21T05:23:38.937Z,61.33
2023-03-21T05:26:10.411Z,64.13
2023-03-21T05:28:37.364Z,66.17
2023-03-21T05:31:04.802Z,67.30
2023-03-21T05:33:32.162Z,69.40
2023-03-21T05:36:03.937Z,67.93
2023-03-21T05:38:31.145Z,59.57
2023-03-21T05:41:00.638Z,68.63
2023-03-21T05:43:28.917Z,60.80
2023-03-21T05:45:55.860Z,60.70
2023-03-21T05:48:25.247Z,65.70
2023-03-21T05:50:54.052Z,73.43
2023-03-21T05:53:23.157Z,66.37
2023-03-21T05:55:50.194Z,66.33
2023-03-21T05:58:17.122Z,65.70
2023-03-21T06:00:48.633Z,64.30
2023-03-21T06:03:20.461Z,66.20
2023-03-21T06:05:49.452Z,61.77
2023-03-21T06:08:16.546Z,72.97
2023-03-21T06:10:50.273Z,66.87
2023-03-21T06:13:17.296Z,67.87
2023-03-21T06:15:44.252Z,70.30
2023-03-21T06:18:11.142Z,64.47
2023-03-21T06:20:40.665Z,67.37
2023-03-21T06:23:09.668Z,68.57
2023-03-21T06:25:39.950Z,68.13
2023-03-21T06:28:06.956Z,70.97
2023-03-21T06:30:36.783Z,69.47
2023-03-21T06:33:03.681Z,80.20
2023-03-21T06:35:33.605Z,75.30
2023-03-21T06:38:02.558Z,73.57
2023-03-21T06:40:31.900Z,72.93
2023-03-21T06:43:01.811Z,79.10
2023-03-21T06:45:31.223Z,72.77
2023-03-21T06:47:58.121Z,66.67
2023-03-21T06:50:27.277Z,72.17
2023-03-21T06:52:54.229Z,76.57
2023-03-21T06:55:26.127Z,70.60
2023-03-21T06:57:57.517Z,65.47
2023-03-21T07:00:25.174Z,72.20
2023-03-21T07:02:54.417Z,69.23
2023-03-21T07:05:23.661Z,78.53
2023-03-21T07:07:52.912Z,69.87
2023-03-21T07:10:22.340Z,68.03
2023-03-21T07:12:49.216Z,72.33
2023-03-21T07:15:19.155Z,73.80
2023-03-21T07:17:46.050Z,74.30
2023-03-21T07:20:13.334Z,75.60
2023-03-21T07:22:40.880Z,72.97
2023-03-21T07:25:13.102Z,65.73
2023-03-21T07:27:41.335Z,74.10
2023-03-21T07:30:10.744Z,72.50
2023-03-21T07:32:38.092Z,80.73
2023-03-21T07:35:07.283Z,73.13
2023-03-21T07:37:34.567Z,64.10
2023-03-21T07:40:02.574Z,70.63
2023-03-21T07:45:02.200Z,67.27
2023-03-21T07:47:32.094Z,73.80
2023-03-21T07:49:58.940Z,65.40
2023-03-21T07:52:28.588Z,69.43
2023-03-21T07:54:58.516Z,68.70
2023-03-21T07:57:27.930Z,71.03
2023-03-21T07:59:54.855Z,60.93
2023-03-21T08:02:24.798Z,58.40
2023-03-21T08:04:54.239Z,62.00
2023-03-21T08:07:23.198Z,56.67
2023-03-21T08:09:50.174Z,57.97
2023-03-21T08:12:17.022Z,64.53
2023-03-21T08:14:44.151Z,55.63
2023-03-21T08:17:11.129Z,46.60
2023-03-21T08:19:40.463Z,51.20
2023-03-21T08:22:10.894Z,46.57
2023-03-21T08:24:40.842Z,46.37
2023-03-21T08:27:07.853Z,50.67
2023-03-21T08:29:35.146Z,52.13
2023-03-21T08:32:02.059Z,42.57
2023-03-21T08:34:28.876Z,46.13
2023-03-21T08:36:55.708Z,46.40
2023-03-21T08:39:24.112Z,39.93
2023-03-21T08:41:51.137Z,41.47
2023-03-21T08:44:22.095Z,41.43
2023-03-21T08:46:52.728Z,42.50
2023-03-21T08:49:24.227Z,37.97
2023-03-21T08:51:57.850Z,35.03
2023-03-21T08:54:31.790Z,38.27
2023-03-21T08:56:58.884Z,34.53
2023-03-21T08:59:28.299Z,38.90
2023-03-21T09:01:58.394Z,38.77
2023-03-21T09:04:26.042Z,39.73
2023-03-21T09:06:56.278Z,34.47
2023-03-21T09:09:27.793Z,35.63
2023-03-21T09:11:54.732Z,32.43
2023-03-21T09:14:23.876Z,31.43
2023-03-21T09:16:55.124Z,33.83
2023-03-21T09:19:24.301Z,39.63
2023-03-21T09:21:53.857Z,32.00
2023-03-21T09:24:21.925Z,34.20
2023-03-21T09:26:53.413Z,34.47
2023-03-21T09:29:21.390Z,35.20
2023-03-21T09:31:48.566Z,36.37
2023-03-21T09:34:15.871Z,39.43
2023-03-21T09:36:48.387Z,38.70
2023-03-21T09:39:18.956Z,41.20
2023-03-21T09:42:21.216Z,36.63
2023-03-21T09:45:20.987Z,44.73
2023-03-21T09:47:52.593Z,40.83
2023-03-21T09:50:31.629Z,38.77
2023-03-21T09:53:05.339Z,44.00
2023-03-21T09:55:38.574Z,44.63
2023-03-21T09:58:05.720Z,41.73
2023-03-21T10:00:47.242Z,44.70
2023-03-21T10:03:26.354Z,45.97
2023-03-21T10:06:01.632Z,42.43
2023-03-21T10:08:37.345Z,40.83
2023-03-21T10:11:18.175Z,42.17
2023-03-21T10:14:18.110Z,34.17
2023-03-21T10:16:51.934Z,36.63
2023-03-21T10:19:20.521Z,42.03
2023-03-21T10:22:02.077Z,36.17
2023-03-21T10:24:33.753Z,33.80
2023-03-21T10:27:02.431Z,43.77
2023-03-21T10:29:42.232Z,30.27
2023-03-21T10:32:17.578Z,29.70
2023-03-21T10:37:25.020Z,33.33
2023-03-21T10:39:54.957Z,31.17
2023-03-21T10:42:32.914Z,34.30
2023-03-21T10:45:00.148Z,28.60
2023-03-21T10:47:38.864Z,30.03
2023-03-21T10:50:13.430Z,37.23
2023-03-21T10:53:00.681Z,29.97
2023-03-21T10:55:32.148Z,31.10
2023-03-21T10:58:18.724Z,28.90
2023-03-21T11:00:48.356Z,32.43
2023-03-21T11:03:26.093Z,34.27
2023-03-21T11:06:06.986Z,27.13
2023-03-21T11:08:48.470Z,38.23
2023-03-21T11:11:33.678Z,27.53
2023-03-21T11:14:07.293Z,27.53
2023-03-21T11:16:44.242Z,23.63
2023-03-21T11:19:29.244Z,27.30
2023-03-21T11:22:03.913Z,38.53
2023-03-21T11:24:32.164Z,40.03
2023-03-21T11:27:08.278Z,29.73
2023-03-21T11:29:51.390Z,28.10
2023-03-21T11:32:36.058Z,28.70
2023-03-21T11:35:07.074Z,30.57
2023-03-21T11:37:36.860Z,30.30
2023-03-21T11:40:36.472Z,33.27
2023-03-21T11:43:17.035Z,35.03
2023-03-21T11:45:57.547Z,27.63
2023-03-21T11:48:25.119Z,24.60
2023-03-21T11:51:01.275Z,28.37
2023-03-21T11:53:39.559Z,30.23
2023-03-21T11:56:28.428Z,32.47
2023-03-21T11:59:25.730Z,26.83
2023-03-21T12:02:06.191Z,28.80
2023-03-21T12:04:48.361Z,38.70
2023-03-21T12:07:33.600Z,30.20
2023-03-21T12:10:20.513Z,32.77
2023-03-21T12:13:17.583Z,25.37
2023-03-21T12:16:12.208Z,23.50
2023-03-21T12:19:29.795Z,25.50
2023-03-21T12:22:13.300Z,20.10
2023-03-21T12:24:50.989Z,21.70
2023-03-21T12:28:02.798Z,20.60
2023-03-21T12:30:48.889Z,23.60
2023-03-21T12:33:31.050Z,28.27
2023-03-21T12:36:31.903Z,21.97
2023-03-21T12:39:27.675Z,31.47
2023-03-21T12:42:11.753Z,22.60
2023-03-21T12:44:46.100Z,19.37
2023-03-21T12:47:19.466Z,24.93
2023-03-21T12:50:16.980Z,28.37
2023-03-21T12:52:49.429Z,23.57
2023-03-21T12:55:25.641Z,21.47
2023-03-21T12:58:04.779Z,16.97
2023-03-21T13:00:47.492Z,20.80
2023-03-21T13:03:19.594Z,18.53
2023-03-21T13:05:58.204Z,22.67
2023-03-21T13:09:03.527Z,21.07
2023-03-21T13:11:31.477Z,18.30
2023-03-21T13:14:24.451Z,18.87
2023-03-21T13:17:01.393Z,18.40
2023-03-21T13:19:39.206Z,26.33
2023-03-21T13:22:24.102Z,21.00
2023-03-21T13:25:04.537Z,22.73
2023-03-21T13:27:34.107Z,22.77
2023-03-21T13:30:26.989Z,16.90
2023-03-21T13:33:29.326Z,19.90
2023-03-21T13:36:07.279Z,21.63
2023-03-21T13:38:36.486Z,21.63
2023-03-21T13:41:16.018Z,22.93
2023-03-21T13:43:51.864Z,19.43
2023-03-21T13:46:25.003Z,20.17
2023-03-21T13:49:10.065Z,19.47
2023-03-21T13:51:38.951Z,23.90
2023-03-21T13:54:08.921Z,18.07
2023-03-21T13:56:45.213Z,20.50
2023-03-21T13:59:38.325Z,21.17
2023-03-21T14:02:24.333Z,18.83
2023-03-21T14:05:14.274Z,16.20
2023-03-21T14:07:47.457Z,18.20
2023-03-21T14:10:44.675Z,18.57
2023-03-21T14:13:24.869Z,19.50
2023-03-21T14:15:57.936Z,16.27
2023-03-21T14:18:35.233Z,25.13
2023-03-21T14:21:24.500Z,70.60
2023-03-21T14:24:07.842Z,28.10
2023-03-21T14:26:40.334Z,19.27
2023-03-21T14:29:25.091Z,21.00
2023-03-21T14:32:00.147Z,15.70
2023-03-21T14:34:35.315Z,17.57
2023-03-21T14:37:04.873Z,13.10
2023-03-21T14:39:33.567Z,18.10
2023-03-21T14:42:03.665Z,23.20
2023-03-21T14:44:57.851Z,18.67
2023-03-21T14:47:29.941Z,15.87
2023-03-21T14:50:00.947Z,19.60
2023-03-21T14:52:31.025Z,20.23
2023-03-21T14:55:00.222Z,19.00
2023-03-21T14:57:32.689Z,16.87
2023-03-21T15:00:10.620Z,17.13
2023-03-21T15:02:40.280Z,19.40
2023-03-21T15:05:20.172Z,23.00
2023-03-21T15:08:01.001Z,25.67
2023-03-21T15:10:31.690Z,21.23
2023-03-21T15:13:02.540Z,29.03
2023-03-21T15:15:33.073Z,33.23
2023-03-21T15:18:06.681Z,16.93
2023-03-21T15:20:37.813Z,15.20
2023-03-21T15:23:19.306Z,16.47
2023-03-21T15:25:46.324Z,16.30
2023-03-21T15:28:14.808Z,13.27
2023-03-21T15:30:54.692Z,16.57
2023-03-21T15:33:25.544Z,13.73
2023-03-21T15:35:56.322Z,13.27
2023-03-21T15:38:34.348Z,13.73
2023-03-21T15:41:17.304Z,15.53
2023-03-21T15:43:44.548Z,10.67
2023-03-21T15:46:19.015Z,14.97
2023-03-21T15:48:45.919Z,16.67
2023-03-21T15:51:23.911Z,12.53
2023-03-21T15:53:55.875Z,14.17
2023-03-21T15:56:34.015Z,12.20
2023-03-21T15:59:04.420Z,21.87
2023-03-21T16:01:39.079Z,17.67
2023-03-21T16:04:13.261Z,18.37
2023-03-21T16:07:15.507Z,21.10
2023-03-21T16:09:46.823Z,18.70
2023-03-21T16:12:18.665Z,15.00
2023-03-21T16:14:47.293Z,14.40
2023-03-21T16:17:33.314Z,13.17
2023-03-21T16:20:03.911Z,15.83
2023-03-21T16:22:37.068Z,14.87
2023-03-21T16:25:06.782Z,12.23
2023-03-21T16:27:33.686Z,13.90
2023-03-21T16:30:01.326Z,12.23
2023-03-21T16:32:28.728Z,10.90
2023-03-21T16:34:56.063Z,11.17
2023-03-21T16:37:23.023Z,10.70
2023-03-21T16:39:52.046Z,10.40
2023-03-21T16:42:18.973Z,9.37
2023-03-21T16:44:46.134Z,14.10
2023-03-21T16:47:20.729Z,16.33
2023-03-21T16:49:50.732Z,9.20
2023-03-21T16:52:17.730Z,9.43
2023-03-21T16:54:46.824Z,15.20
2023-03-21T16:57:31.148Z,10.90
2023-03-21T17:00:00.828Z,11.63
2023-03-21T17:02:27.792Z,11.63
2023-03-21T17:04:54.689Z,15.40
2023-03-21T17:07:24.254Z,8.00
2023-03-21T17:09:55.818Z,12.57
2023-03-21T17:12:22.713Z,12.60
2023-03-21T17:14:49.665Z,12.63
2023-03-21T17:17:17.632Z,16.33
2023-03-21T17:19:44.597Z,15.83
2023-03-21T17:22:13.422Z,11.57
2023-03-21T17:24:43.931Z,12.37
2023-03-21T17:27:15.384Z,14.30
2023-03-21T17:29:49.490Z,19.40
2023-03-21T17:32:20.973Z,17.83
2023-03-21T17:34:52.945Z,13.20
2023-03-21T17:37:25.996Z,17.43
2023-03-21T17:39:52.862Z,20.80
2023-03-21T17:42:23.281Z,19.90
2023-03-21T17:44:50.297Z,20.23
2023-03-21T17:47:17.330Z,15.63
2023-03-21T17:49:47.315Z,22.50
2023-03-21T17:52:15.188Z,16.80
2023-03-21T17:54:49.528Z,13.37
2023-03-21T17:57:16.360Z,23.07
2023-03-21T17:59:43.212Z,17.03
2023-03-21T18:02:12.648Z,25.83
2023-03-21T18:04:46.654Z,22.00
2023-03-21T18:07:32.518Z,18.80
2023-03-21T18:10:05.068Z,26.23
2023-03-21T18:12:31.962Z,19.50
2023-03-21T18:14:59.142Z,22.57
2023-03-21T18:17:26.527Z,27.73
2023-03-21T18:19:53.883Z,26.33
2023-03-21T18:22:23.442Z,24.07
2023-03-21T18:24:50.302Z,27.37
2023-03-21T18:27:19.953Z,30.97
2023-03-21T18:30:25.820Z,21.20
2023-03-21T18:32:34.870Z,25.90
2023-03-21T18:35:02.010Z,23.30
2023-03-21T18:37:32.056Z,24.10
2023-03-21T18:40:00.332Z,27.10
2023-03-21T18:42:31.561Z,32.50
2023-03-21T18:44:58.761Z,33.43
2023-03-21T18:47:25.839Z,27.73
2023-03-21T18:52:43.339Z,33.00
2023-03-21T18:55:12.113Z,24.87
2023-03-21T18:57:40.582Z,38.60
2023-03-21T19:00:17.554Z,32.10
2023-03-21T19:02:50.355Z,37.80
2023-03-21T19:05:20.932Z,35.83
2023-03-21T19:07:48.865Z,29.83
2023-03-21T19:10:21.367Z,39.07
2023-03-21T19:12:50.865Z,38.50
2023-03-21T19:15:25.216Z,40.27
2023-03-21T19:20:47.373Z,51.57
2023-03-21T19:23:14.688Z,39.77
2023-03-21T19:25:43.735Z,34.57
2023-03-21T19:28:13.702Z,33.30
2023-03-21T19:30:49.628Z,37.87
2023-03-21T19:33:20.962Z,37.70
2023-03-21T19:36:08.951Z,37.10
2023-03-21T19:38:37.669Z,43.63
2023-03-21T19:41:05.144Z,32.67
2023-03-21T19:43:34.119Z,36.80
2023-03-21T19:46:03.326Z,43.87
2023-03-21T19:48:32.766Z,42.47
2023-03-21T19:51:26.892Z,35.70
2023-03-21T19:53:49.214Z,43.07
2023-03-21T19:56:22.372Z,40.50
2023-03-21T19:58:49.957Z,35.33
2023-03-21T20:01:19.427Z,36.40
2023-03-21T20:03:46.525Z,44.53
2023-03-21T20:06:17.159Z,39.87
2023-03-21T20:09:37.986Z,41.73
2023-03-21T20:11:33.549Z,33.63
2023-03-21T20:14:03.523Z,40.73
2023-03-21T20:16:35.296Z,31.73
2023-03-21T20:19:05.970Z,33.70
2023-03-21T20:21:46.495Z,31.63
2023-03-21T20:24:20.158Z,38.37
2023-03-21T20:26:47.064Z,29.90
2023-03-21T20:30:07.585Z,42.90
2023-03-21T20:32:00.874Z,39.00
2023-03-21T20:34:28.573Z,41.23
2023-03-21T20:36:59.444Z,28.67
2023-03-21T20:39:29.466Z,31.17
2023-03-21T20:41:59.695Z,34.00
2023-03-21T20:44:57.159Z,32.97
2023-03-21T20:47:18.740Z,34.13
2023-03-21T20:49:45.828Z,30.30
2023-03-21T20:55:08.820Z,29.37
2023-03-21T20:57:38.625Z,27.70
2023-03-21T21:00:13.480Z,24.70
2023-03-21T21:02:44.967Z,31.03
2023-03-21T21:05:33.700Z,24.80
2023-03-21T21:08:01.659Z,33.10
2023-03-21T21:10:28.776Z,22.87
2023-03-21T21:12:55.721Z,25.53
2023-03-21T21:15:22.712Z,19.97
2023-03-21T21:18:05.445Z,31.47
2023-03-21T21:20:33.710Z,19.77
2023-03-21T21:23:02.791Z,21.70
2023-03-21T21:25:34.380Z,19.17
2023-03-21T21:28:01.770Z,17.53
2023-03-21T21:30:29.514Z,18.23
2023-03-21T21:32:59.401Z,24.00
2023-03-21T21:35:28.885Z,17.77
2023-03-21T21:37:58.788Z,17.97
2023-03-21T21:40:27.878Z,13.60
2023-03-21T21:42:54.744Z,22.90
2023-03-21T21:45:21.660Z,30.87
2023-03-21T21:47:51.040Z,18.30
2023-03-21T21:50:18.913Z,16.60
2023-03-21T21:52:52.702Z,13.20
2023-03-21T21:55:22.411Z,16.43
2023-03-21T21:57:57.906Z,16.90
2023-03-21T22:00:29.009Z,14.60
2023-03-21T22:02:58.149Z,12.43
2023-03-21T22:05:28.334Z,17.83
2023-03-21T22:07:56.480Z,13.13
2023-03-21T22:10:27.598Z,16.53
2023-03-21T22:12:54.458Z,14.70
2023-03-21T22:15:22.537Z,16.50
2023-03-21T22:17:50.045Z,14.53
2023-03-21T22:20:19.929Z,9.70
2023-03-21T22:22:47.485Z,16.00
2023-03-21T22:25:16.948Z,21.97
2023-03-21T22:27:47.218Z,11.47
2023-03-21T22:30:18.683Z,11.00
2023-03-21T22:33:06.331Z,11.23
2023-03-21T22:35:35.402Z,12.23
2023-03-21T22:38:04.912Z,15.20
2023-03-21T22:40:34.788Z,11.00
2023-03-21T22:43:01.893Z,10.77
2023-03-21T22:45:33.587Z,15.10
2023-03-21T22:48:01.076Z,13.93
2023-03-21T22:50:31.097Z,11.37
2023-03-21T22:53:00.221Z,11.30
2023-03-21T22:55:29.326Z,10.63
2023-03-21T22:57:56.274Z,16.23
2023-03-21T23:00:26.591Z,18.00
2023-03-21T23:02:53.598Z,14.53
2023-03-21T23:05:23.530Z,15.40
2023-03-21T23:07:50.444Z,13.20
2023-03-21T23:10:17.576Z,11.50
2023-03-21T23:12:49.550Z,15.77
2023-03-21T23:15:19.134Z,16.57
2023-03-21T23:17:48.559Z,11.80
2023-03-21T23:20:20.441Z,13.47
2023-03-21T23:22:47.376Z,13.53
2023-03-21T23:25:14.227Z,13.27
2023-03-21T23:27:41.117Z,16.43
2023-03-21T23:30:08.475Z,19.37
2023-03-21T23:32:35.367Z,11.50
2023-03-21T23:35:02.352Z,13.63
2023-03-21T23:37:32.726Z,13.07
2023-03-21T23:39:59.589Z,18.80
2023-03-21T23:42:29.414Z,17.53
2023-03-21T23:44:58.658Z,16.33
2023-03-21T23:47:25.606Z,13.83
2023-03-21T23:49:52.853Z,19.50
2023-03-21T23:52:22.077Z,14.43
2023-03-21T23:54:49.415Z,12.07
2023-03-21T23:57:17.940Z,16.70
2023-03-21T23:59:46.938Z,14.67
